Time;durP1;ratioP1;P1;durP2;ratioP2;P2;SDS_P1;SDS_P2;PMS_P1;PMS_P2;Temp;Humidity;BMP_temperature;BMP_pressure;BME280_temperature;BME280_humidity;BME280_pressure;Samples;Min_cycle;Max_cycle;Signal;HPM_P1;HPM_P2
2022/07/17 00:01:42;;;;;;;9.13;2.17;;;23.90;66.30;;;24.49;50.17;95319.25;5042471;28;20478;-58
2022/07/17 00:04:09;;;;;;;2.10;2.00;;;23.90;67.10;;;24.47;49.87;95324.03;5046811;28;21010;-62
2022/07/17 00:06:36;;;;;;;2.83;2.63;;;23.90;66.30;;;24.47;50.39;95334.81;5047309;28;20983;-62
2022/07/17 00:09:03;;;;;;;4.80;2.87;;;23.90;66.50;;;24.46;49.76;95330.44;5047524;28;20497;-58
2022/07/17 00:11:31;;;;;;;2.73;2.50;;;23.80;66.40;;;24.44;50.34;95329.84;5046939;28;20490;-56
2022/07/17 00:13:58;;;;;;;2.20;2.10;;;23.80;66.30;;;24.42;49.84;95327.38;5047007;28;20497;-58
2022/07/17 00:16:26;;;;;;;3.53;2.60;;;23.80;66.50;;;24.42;50.33;95318.50;5047134;28;20467;-63
2022/07/17 00:18:53;;;;;;;4.53;2.90;;;23.80;66.30;;;24.40;49.85;95331.31;5045442;28;20516;-62
2022/07/17 00:21:21;;;;;;;2.20;2.10;;;23.80;66.40;;;24.39;49.69;95330.50;5047208;28;20464;-57
2022/07/17 00:23:48;;;;;;;3.30;2.20;;;23.70;66.50;;;24.38;49.86;95336.91;5046769;28;20936;-62
2022/07/17 00:26:15;;;;;;;2.60;2.40;;;23.80;66.60;;;24.35;50.62;95329.25;5047191;28;20463;-59
2022/07/17 00:28:42;;;;;;;8.03;2.80;;;23.70;66.50;;;24.33;49.81;95342.09;5046788;28;20908;-58
2022/07/17 00:31:09;;;;;;;4.90;2.30;;;23.70;66.50;;;24.30;50.39;95335.28;5046607;28;21004;-58
2022/07/17 00:33:38;;;;;;;9.97;2.40;;;23.70;66.50;;;24.27;50.61;95337.59;5047054;28;20964;-58
2022/07/17 00:36:06;;;;;;;8.93;2.70;;;23.70;66.60;;;24.24;50.53;95338.00;5046686;28;20784;-64
2022/07/17 00:38:33;;;;;;;2.23;2.03;;;23.60;66.60;;;24.21;50.00;95343.81;5046765;28;20451;-63
2022/07/17 00:41:00;;;;;;;2.80;2.57;;;23.60;66.90;;;24.19;50.26;95351.28;5046931;28;20511;-59
2022/07/17 00:43:27;;;;;;;2.40;2.20;;;23.60;66.90;;;24.17;50.10;95340.75;5046342;28;20520;-58
2022/07/17 00:45:57;;;;;;;8.33;2.50;;;23.60;66.90;;;24.17;50.54;95348.81;5046662;28;20504;-64
2022/07/17 00:48:25;;;;;;;7.13;2.30;;;23.60;66.90;;;24.15;50.11;95351.72;5043892;28;20979;-57
2022/07/17 00:50:53;;;;;;;2.63;2.30;;;23.60;66.90;;;24.13;50.54;95348.38;5046108;28;20537;-63
2022/07/17 00:53:21;;;;;;;3.07;2.70;;;23.50;66.80;;;24.12;49.99;95353.97;5046433;28;20459;-63
2022/07/17 00:55:48;;;;;;;5.10;2.43;;;23.50;66.70;;;24.10;50.57;95351.50;5046473;28;20980;-56
2022/07/17 00:58:19;;;;;;;2.63;2.17;;;23.50;66.80;;;24.09;50.42;95354.41;5046208;28;20447;-57
2022/07/17 01:00:48;;;;;;;5.70;2.87;;;23.50;66.80;;;24.06;50.39;95355.66;5042130;28;20635;-64
2022/07/17 01:03:15;;;;;;;3.77;2.33;;;23.50;66.70;;;24.05;49.91;95355.88;5046560;28;20463;-64
2022/07/17 01:05:43;;;;;;;17.27;2.50;;;23.40;66.80;;;24.04;50.44;95355.03;5046037;28;20482;-57
2022/07/17 01:08:11;;;;;;;2.77;2.20;;;23.50;66.80;;;24.03;50.05;95349.88;5046231;28;21110;-57
2022/07/17 01:10:39;;;;;;;2.77;2.63;;;23.40;66.70;;;24.02;50.12;95361.69;5046498;28;20491;-64
2022/07/17 01:13:06;;;;;;;2.30;2.10;;;23.40;66.80;;;24.00;49.94;95359.22;5046101;28;20470;-62
2022/07/17 01:15:33;;;;;;;15.77;2.63;;;23.40;66.70;;;23.97;50.61;95355.06;5046395;28;20564;-62
2022/07/17 01:18:01;;;;;;;2.40;2.20;;;23.40;66.90;;;23.95;50.44;95359.00;5044311;28;20444;-58
2022/07/17 01:20:28;;;;;;;2.67;2.27;;;23.40;66.90;;;23.91;50.05;95353.22;5046290;28;20517;-58
2022/07/17 01:22:57;;;;;;;2.90;2.40;;;23.30;67.00;;;23.88;50.80;95344.78;5046052;28;20464;-58
2022/07/17 01:25:25;;;;;;;6.70;2.60;;;23.30;67.00;;;23.83;50.55;95342.69;5046035;28;20483;-63
2022/07/17 01:27:52;;;;;;;3.07;2.37;;;23.30;67.00;;;23.79;50.28;95357.56;5046085;28;20827;-58
2022/07/17 01:30:19;;;;;;;2.40;2.30;;;23.20;67.00;;;23.75;50.08;95361.69;5046023;28;21231;-62
2022/07/17 01:32:46;;;;;;;3.00;2.40;;;23.20;67.10;;;23.73;50.82;95358.41;5046165;28;20517;-58
2022/07/17 01:35:14;;;;;;;5.80;2.70;;;23.10;67.00;;;23.68;50.18;95364.41;5045790;28;20538;-57
2022/07/17 01:37:42;;;;;;;4.23;2.73;;;23.10;67.20;;;23.65;50.21;95364.00;5045605;28;20456;-64
2022/07/17 01:40:13;;;;;;;6.40;2.10;;;23.10;67.50;;;23.60;50.91;95360.09;5045562;28;20452;-61
2022/07/17 01:42:43;;;;;;;3.80;2.60;;;23.00;67.30;;;23.60;50.31;95357.41;5042561;28;20451;-58
2022/07/17 01:45:10;;;;;;;3.97;2.23;;;23.00;67.20;;;23.59;50.61;95352.22;5045792;28;21395;-64
2022/07/17 01:47:38;;;;;;;5.07;2.70;;;23.00;67.30;;;23.58;50.69;95362.16;5045292;28;20853;-58
2022/07/17 01:50:06;;;;;;;2.37;2.27;;;23.00;67.30;;;23.59;50.78;95362.97;5045805;28;20553;-62
2022/07/17 01:52:36;;;;;;;2.67;2.30;;;23.00;67.40;;;23.58;50.12;95367.53;5045430;28;20502;-63
2022/07/17 01:55:04;;;;;;;1.97;1.73;;;23.00;67.20;;;23.58;50.66;95364.84;5045762;28;20440;-58
2022/07/17 01:57:32;;;;;;;5.77;2.73;;;23.00;67.20;;;23.57;50.68;95360.50;5045757;28;20553;-57
2022/07/17 02:00:00;;;;;;;4.77;3.50;;;23.00;67.30;;;23.58;49.93;95366.72;5042371;28;20448;-58
2022/07/17 02:02:27;;;;;;;2.77;2.27;;;23.00;67.00;;;23.56;50.79;95366.94;5045481;28;20531;-57
2022/07/17 02:04:54;;;;;;;2.50;2.03;;;23.00;67.10;;;23.55;50.20;95365.25;5045898;28;20462;-63
2022/07/17 02:07:21;;;;;;;4.23;1.93;;;23.00;67.00;;;23.55;50.48;95362.59;5045428;28;20480;-64
2022/07/17 02:09:48;;;;;;;2.63;2.50;;;23.00;67.00;;;23.54;50.27;95368.16;5041822;28;20495;-59
2022/07/17 02:12:15;;;;;;;2.80;2.37;;;23.00;67.00;;;23.53;49.97;95361.97;5044813;28;20484;-60
2022/07/17 02:14:44;;;;;;;4.53;2.00;;;22.90;66.80;;;23.51;49.73;95361.34;5044907;28;20937;-61
2022/07/17 02:17:11;;;;;;;2.37;2.17;;;22.90;66.60;;;23.47;50.03;95362.81;5043308;28;20999;-62
2022/07/17 02:19:38;;;;;;;3.83;2.60;;;22.90;66.50;;;23.45;49.66;95367.53;5044363;28;20460;-63
2022/07/17 02:22:06;;;;;;;3.70;3.03;;;22.90;66.60;;;23.43;49.85;95364.25;5044867;28;20472;-61
2022/07/17 02:24:33;;;;;;;2.77;2.57;;;22.90;66.70;;;23.42;49.93;95351.84;5046105;28;20526;-63
2022/07/17 02:27:00;;;;;;;3.13;2.77;;;22.90;66.40;;;23.39;50.15;95363.00;5048802;28;20472;-57
2022/07/17 02:29:27;;;;;;;3.30;2.43;;;22.80;66.30;;;23.35;49.46;95351.84;5049323;28;20491;-62
2022/07/17 02:31:56;;;;;;;2.43;2.23;;;22.80;66.30;;;23.32;50.31;95364.88;5047630;28;20541;-62
2022/07/17 02:34:23;;;;;;;3.23;2.93;;;22.70;66.20;;;23.25;50.02;95368.41;5046995;28;20478;-57
2022/07/17 02:36:50;;;;;;;2.73;2.17;;;22.70;66.20;;;23.21;50.16;95374.38;5046939;28;21073;-57
2022/07/17 02:39:17;;;;;;;2.50;2.30;;;22.60;66.30;;;23.17;50.05;95376.63;5047294;28;20521;-58
2022/07/17 02:41:45;;;;;;;2.50;2.30;;;22.60;66.40;;;23.11;50.03;95372.09;5043957;28;20471;-63
2022/07/17 02:44:12;;;;;;;5.60;2.93;;;22.60;66.80;;;23.06;50.45;95366.50;5048282;28;20573;-64
2022/07/17 02:46:39;;;;;;;3.30;2.40;;;22.50;67.20;;;23.00;50.95;95376.16;5047210;28;20467;-62
2022/07/17 02:49:07;;;;;;;5.83;2.70;;;22.50;67.50;;;22.97;51.20;95370.41;5048789;28;20440;-57
2022/07/17 02:51:35;;;;;;;3.10;2.73;;;22.40;67.80;;;22.92;51.17;95377.19;5048840;28;20468;-58
2022/07/17 02:54:02;;;;;;;3.77;2.47;;;22.40;67.90;;;22.89;50.87;95380.28;5048533;28;20463;-64
2022/07/17 02:56:29;;;;;;;3.70;2.90;;;22.30;67.60;;;22.86;51.00;95379.88;5048739;28;20867;-56
2022/07/17 02:58:56;;;;;;;2.53;2.37;;;22.30;67.60;;;22.83;50.97;95386.47;5047938;28;20513;-58
2022/07/17 03:01:24;;;;;;;2.57;2.37;;;22.30;67.60;;;22.79;50.51;95381.72;5047556;28;20467;-61
2022/07/17 03:03:51;;;;;;;2.60;2.40;;;22.20;67.60;;;22.78;50.57;95390.81;5048482;28;20702;-63
2022/07/17 03:06:19;;;;;;;2.43;2.23;;;22.20;67.60;;;22.75;50.73;95386.66;5048380;28;20476;-57
2022/07/17 03:08:46;;;;;;;4.17;2.83;;;22.20;67.70;;;22.73;50.81;95386.88;5048429;28;20521;-63
2022/07/17 03:11:14;;;;;;;5.33;2.80;;;22.20;67.80;;;22.73;51.11;95386.88;5047979;28;21204;-63
2022/07/17 03:13:41;;;;;;;3.90;2.23;;;22.20;67.70;;;22.73;51.04;95397.59;5048057;28;20516;-58
2022/07/17 03:16:08;;;;;;;5.30;2.73;;;22.20;67.60;;;22.73;50.93;95405.63;5047456;28;20537;-62
2022/07/17 03:18:36;;;;;;;3.20;2.90;;;22.20;67.70;;;22.73;50.56;95407.50;5047284;28;20897;-57
2022/07/17 03:21:03;;;;;;;2.30;2.10;;;22.20;67.70;;;22.75;50.90;95405.44;5048297;28;20467;-63
2022/07/17 03:23:32;;;;;;;2.57;2.37;;;22.20;67.90;;;22.72;51.06;95400.47;5048543;28;20459;-63
2022/07/17 03:25:59;;;;;;;6.20;2.63;;;22.20;68.00;;;22.71;50.72;95404.19;5048134;28;20968;-59
2022/07/17 03:28:26;;;;;;;2.70;2.53;;;22.20;67.80;;;22.69;50.42;95403.56;5048203;28;20463;-63
2022/07/17 03:30:54;;;;;;;5.03;2.10;;;22.10;67.60;;;22.69;50.88;95411.59;5048478;28;20557;-57
2022/07/17 03:33:21;;;;;;;6.63;2.40;;;22.10;67.60;;;22.70;50.82;95418.63;5047952;28;20448;-58
2022/07/17 03:35:48;;;;;;;2.70;2.50;;;22.20;67.60;;;22.71;50.53;95425.63;5048014;28;20471;-58
2022/07/17 03:38:15;;;;;;;3.40;2.70;;;22.10;67.30;;;22.69;50.65;95428.50;5047997;28;21141;-63
2022/07/17 03:40:44;;;;;;;6.33;2.40;;;22.10;67.30;;;22.67;50.91;95421.72;5048172;28;20479;-58
2022/07/17 03:43:12;;;;;;;5.63;2.67;;;22.10;67.20;;;22.65;50.21;95413.03;5043980;28;20509;-57
2022/07/17 03:45:39;;;;;;;6.30;2.63;;;22.10;67.20;;;22.64;50.74;95419.44;5047535;28;20463;-57
2022/07/17 03:48:07;;;;;;;2.60;2.00;;;22.10;67.10;;;22.60;50.19;95423.53;5047938;28;20448;-59
2022/07/17 03:50:34;;;;;;;6.33;2.50;;;22.00;67.10;;;22.56;50.72;95426.63;5047438;28;20500;-64
2022/07/17 03:53:01;;;;;;;4.33;3.03;;;22.00;67.00;;;22.54;50.23;95433.22;5047868;28;20451;-63
2022/07/17 03:55:28;;;;;;;4.50;2.57;;;22.00;67.10;;;22.55;50.55;95441.06;5047708;28;20541;-63
2022/07/17 03:57:57;;;;;;;6.03;3.13;;;22.00;67.10;;;22.57;50.41;95440.84;5047908;28;20887;-59
2022/07/17 04:00:24;;;;;;;3.33;2.60;;;22.00;67.10;;;22.59;50.26;95437.97;5045643;28;20482;-63
2022/07/17 04:02:51;;;;;;;15.43;2.80;;;22.00;67.20;;;22.60;50.16;95440.44;5051177;28;20509;-58
2022/07/17 04:05:18;;;;;;;4.60;2.57;;;22.00;66.90;;;22.61;50.58;95442.13;5046700;28;20451;-63
2022/07/17 04:07:46;;;;;;;3.10;2.40;;;22.10;66.90;;;22.62;49.93;95442.94;5046765;28;20983;-58
2022/07/17 04:10:14;;;;;;;4.47;2.67;;;22.10;66.60;;;22.62;50.04;95442.94;5047900;28;20574;-57
2022/07/17 04:12:42;;;;;;;3.63;2.57;;;22.10;66.40;;;22.63;49.75;95450.78;5050892;28;20975;-62
2022/07/17 04:15:11;;;;;;;2.93;2.53;;;22.10;66.10;;;22.65;49.73;95454.09;5046802;28;20456;-63
2022/07/17 04:17:38;;;;;;;4.17;3.10;;;22.10;66.00;;;22.69;49.53;95465.25;5048809;28;20510;-58
2022/07/17 04:20:07;;;;;;;2.90;2.57;;;22.10;66.00;;;22.74;49.33;95466.31;5045897;28;20533;-63
2022/07/17 04:22:34;;;;;;;3.40;3.10;;;22.20;65.80;;;22.80;49.57;95461.97;5051351;28;20768;-58
2022/07/17 04:25:01;;;;;;;7.03;2.77;;;22.20;66.10;;;22.87;49.08;95460.16;5047048;28;20505;-57
2022/07/17 04:27:28;;;;;;;6.60;3.10;;;22.30;65.70;;;22.92;49.44;95452.31;5048080;28;20482;-57
2022/07/17 04:29:56;;;;;;;4.50;2.70;;;22.40;65.60;;;22.98;48.92;95456.03;5047725;28;20495;-64
2022/07/17 04:32:24;;;;;;;3.47;2.73;;;22.40;65.50;;;23.03;48.84;95458.94;5042322;28;20529;-64
2022/07/17 04:34:51;;;;;;;3.30;2.10;;;22.50;65.60;;;23.08;48.76;95463.69;5046069;28;20468;-58
2022/07/17 04:37:18;;;;;;;9.57;3.10;;;22.50;65.60;;;23.14;48.95;95462.91;5048945;28;20482;-65
2022/07/17 04:39:46;;;;;;;5.20;3.10;;;22.60;65.70;;;23.21;49.19;95471.00;5047668;28;20463;-60
2022/07/17 04:42:13;;;;;;;4.20;2.80;;;22.60;66.00;;;23.25;48.99;95467.69;5047543;28;20480;-64
2022/07/17 04:44:40;;;;;;;4.50;2.97;;;22.70;65.90;;;23.31;49.30;95467.91;5050303;28;20530;-64
2022/07/17 04:47:07;;;;;;;6.23;2.80;;;22.70;65.70;;;23.36;48.94;95476.16;5050137;28;20564;-64
2022/07/17 04:49:36;;;;;;;8.13;2.80;;;22.80;65.80;;;23.40;48.69;95477.41;5045670;28;20763;-64
2022/07/17 04:52:03;;;;;;;3.17;2.97;;;22.80;65.50;;;23.45;48.62;95488.34;5044428;28;20535;-58
2022/07/17 04:54:31;;;;;;;5.50;3.33;;;22.90;65.10;;;23.51;49.15;95490.22;5048269;28;21033;-64
2022/07/17 04:56:58;;;;;;;14.87;2.60;;;23.00;65.40;;;23.58;48.79;95491.06;5046771;28;20911;-64
2022/07/17 04:59:25;;;;;;;9.77;3.40;;;23.00;65.30;;;23.68;48.82;95500.56;5048659;28;20850;-65
2022/07/17 05:01:52;;;;;;;4.33;3.23;;;23.10;65.50;;;23.74;48.60;95494.38;5044940;28;20905;-58
2022/07/17 05:04:20;;;;;;;8.20;2.70;;;23.10;65.40;;;23.80;48.26;95499.72;5043963;28;20439;-65
2022/07/17 05:06:49;;;;;;;3.00;2.80;;;23.20;65.20;;;23.88;48.07;95495.22;5046063;28;21035;-59
2022/07/17 05:09:16;;;;;;;5.10;2.60;;;23.30;65.00;;;23.94;48.25;95503.28;5046490;28;20506;-63
2022/07/17 05:11:43;;;;;;;4.40;3.00;;;23.30;64.90;;;23.99;48.22;95508.84;5046959;28;20495;-63
2022/07/17 05:14:10;;;;;;;5.87;3.57;;;23.40;64.90;;;24.05;48.08;95498.31;5045219;28;20440;-59
2022/07/17 05:16:38;;;;;;;6.83;2.93;;;23.40;64.70;;;24.07;48.42;95497.06;5048810;28;20506;-63
2022/07/17 05:19:06;;;;;;;7.33;3.83;;;23.50;64.40;;;24.15;47.71;95498.69;5041328;28;21035;-65
2022/07/17 05:21:33;;;;;;;3.80;3.50;;;23.50;64.30;;;24.27;48.41;95502.41;5046381;28;20480;-63
2022/07/17 05:24:02;;;;;;;5.70;3.70;;;23.70;63.90;;;24.41;48.07;95502.38;5045835;28;20455;-63
2022/07/17 05:26:29;;;;;;;12.03;4.33;;;23.80;63.90;;;24.55;47.90;95509.34;5045978;28;20468;-58
2022/07/17 05:28:56;;;;;;;3.77;3.47;;;23.90;64.00;;;24.70;47.62;95499.19;5045784;28;20448;-58
2022/07/17 05:31:23;;;;;;;4.53;3.63;;;24.00;63.30;;;24.87;47.30;95506.81;5044644;28;20503;-60
2022/07/17 05:33:50;;;;;;;5.37;2.87;;;24.20;63.30;;;25.02;46.98;95507.34;5044946;28;20932;-64
2022/07/17 05:36:18;;;;;;;5.43;2.97;;;24.30;62.70;;;25.14;46.05;95509.34;5045623;28;20987;-58
2022/07/17 05:38:45;;;;;;;9.00;3.77;;;24.50;61.80;;;25.22;45.51;95506.41;5045351;28;20509;-64
2022/07/17 05:41:13;;;;;;;12.27;3.00;;;24.60;61.20;;;25.34;45.89;95503.88;5045746;28;20486;-59
2022/07/17 05:43:41;;;;;;;5.00;2.50;;;24.70;61.00;;;25.46;45.37;95504.84;5045218;28;20509;-65
2022/07/17 05:46:08;;;;;;;3.67;3.37;;;24.80;60.60;;;25.61;44.72;95501.00;5045389;28;20479;-58
2022/07/17 05:48:35;;;;;;;7.70;3.23;;;24.90;60.70;;;25.76;44.61;95501.50;5047431;28;20510;-63
2022/07/17 05:51:03;;;;;;;9.70;2.97;;;25.00;59.10;;;25.90;43.75;95507.63;5044069;28;20577;-59
2022/07/17 05:53:30;;;;;;;3.23;2.93;;;25.20;59.10;;;26.01;43.06;95506.97;5044383;28;20455;-68
2022/07/17 05:55:57;;;;;;;5.10;3.40;;;25.30;58.00;;;26.12;43.18;95500.00;5045288;28;20478;-64
2022/07/17 05:58:26;;;;;;;8.43;3.70;;;25.40;58.10;;;26.22;43.18;95507.59;5043623;28;20516;-64
2022/07/17 06:00:53;;;;;;;3.70;3.00;;;25.50;58.20;;;26.38;43.30;95509.69;5045252;28;21146;-58
2022/07/17 06:03:20;;;;;;;3.00;2.80;;;25.70;58.40;;;26.57;42.76;95510.53;5048777;28;20451;-59
2022/07/17 06:05:48;;;;;;;3.93;2.20;;;25.80;58.00;;;26.71;40.76;95513.94;5048972;28;20475;-60
2022/07/17 06:08:15;;;;;;;4.50;2.53;;;26.00;55.60;;;26.73;40.88;95506.44;5049864;28;20955;-57
2022/07/17 06:10:42;;;;;;;7.07;2.93;;;26.10;55.30;;;26.84;40.59;95518.34;5049144;28;20494;-64
2022/07/17 06:13:09;;;;;;;7.30;2.80;;;26.10;55.10;;;26.93;40.16;95506.19;5048563;28;20439;-64
2022/07/17 06:15:38;;;;;;;7.13;2.50;;;26.20;54.10;;;27.07;40.09;95516.84;5048533;28;20593;-65
2022/07/17 06:18:05;;;;;;;9.63;2.70;;;26.40;54.10;;;27.17;39.17;95519.81;5049139;28;20454;-57
2022/07/17 06:20:32;;;;;;;4.63;2.23;;;26.50;53.40;;;27.21;39.19;95518.31;5048917;28;20521;-63
2022/07/17 06:23:00;;;;;;;3.87;2.90;;;26.60;53.10;;;27.28;39.14;95510.94;5048458;28;20455;-59
2022/07/17 06:25:27;;;;;;;6.83;2.37;;;26.60;53.10;;;27.37;39.18;95516.84;5048349;28;20485;-59
2022/07/17 06:27:54;;;;;;;6.10;2.93;;;26.70;52.90;;;27.48;39.25;95520.66;5049125;28;20456;-63
2022/07/17 06:30:21;;;;;;;3.97;2.33;;;26.80;53.00;;;27.61;38.38;95516.94;5048539;28;20533;-59
2022/07/17 06:32:50;;;;;;;3.43;2.73;;;26.90;51.90;;;27.75;38.67;95517.53;5047869;28;20483;-58
2022/07/17 06:35:17;;;;;;;2.40;2.30;;;27.00;52.20;;;27.99;38.70;95524.66;5048205;28;20447;-64
2022/07/17 06:37:45;;;;;;;10.70;3.07;;;27.20;52.50;;;28.25;38.08;95517.97;5048991;28;20455;-60
2022/07/17 06:40:12;;;;;;;3.20;2.37;;;27.40;52.00;;;28.52;37.99;95513.97;5049008;28;20470;-63
2022/07/17 06:42:39;;;;;;;14.77;3.00;;;27.70;51.80;;;28.77;37.19;95519.97;5048085;28;20457;-59
2022/07/17 06:45:09;;;;;;;3.43;2.23;;;27.90;51.30;;;29.02;36.95;95520.72;5048106;28;20459;-58
2022/07/17 06:47:38;;;;;;;8.83;2.90;;;28.20;50.80;;;29.25;36.62;95520.69;5045150;28;20715;-58
2022/07/17 06:50:09;;;;;;;4.03;2.57;;;28.40;50.40;;;29.46;35.79;95523.78;5048532;28;20451;-58
2022/07/17 06:52:36;;;;;;;3.97;2.33;;;28.60;49.90;;;29.60;36.33;95516.97;5048740;28;20520;-63
2022/07/17 06:55:04;;;;;;;12.10;3.23;;;28.80;49.50;;;29.76;35.73;95514.53;5045682;28;20893;-58
2022/07/17 06:57:32;;;;;;;3.30;3.00;;;28.90;49.10;;;29.98;35.18;95518.22;5048401;28;21069;-64
2022/07/17 06:59:59;;;;;;;3.90;2.10;;;29.10;48.90;;;30.18;34.69;95522.34;5048355;28;20455;-63
2022/07/17 07:02:26;;;;;;;2.63;2.20;;;29.30;48.50;;;30.39;34.82;95523.47;5047218;28;20481;-58
2022/07/17 07:04:53;;;;;;;4.90;2.17;;;29.50;48.30;;;30.60;34.42;95524.59;5048095;28;20470;-63
2022/07/17 07:07:22;;;;;;;13.53;2.80;;;29.70;47.70;;;30.80;33.96;95534.06;5047653;28;20487;-70
2022/07/17 07:09:50;;;;;;;4.20;2.77;;;29.90;47.40;;;30.96;34.66;95530.50;5048176;28;20462;-58
2022/07/17 07:12:17;;;;;;;10.00;3.23;;;30.10;47.50;;;31.15;34.31;95527.50;5046876;28;20259;-63
2022/07/17 07:14:44;;;;;;;8.20;3.17;;;30.30;47.40;;;31.33;33.68;95529.88;5047375;28;20650;-59
2022/07/17 07:17:12;;;;;;;5.73;2.13;;;30.50;47.00;;;31.50;33.80;95532.50;5048561;28;20217;-58
2022/07/17 07:19:39;;;;;;;4.03;2.63;;;30.60;46.80;;;31.67;33.97;95527.00;5048080;28;20197;-59
2022/07/17 07:22:06;;;;;;;3.70;2.40;;;30.80;46.10;;;31.79;33.58;95524.94;5046440;28;20255;-57
2022/07/17 07:24:35;;;;;;;2.60;2.40;;;30.90;46.20;;;31.85;33.15;95524.97;5047174;28;20721;-58
2022/07/17 07:27:02;;;;;;;3.20;2.60;;;31.00;45.80;;;31.87;32.85;95539.13;5047542;28;20653;-58
2022/07/17 07:29:30;;;;;;;3.10;2.90;;;31.00;45.70;;;31.91;32.99;95542.97;5044014;28;20204;-56
2022/07/17 07:31:57;;;;;;;4.60;3.33;;;31.10;45.60;;;31.99;32.43;95534.34;5047363;28;20513;-65
2022/07/17 07:34:24;;;;;;;8.90;2.50;;;31.10;45.20;;;32.11;32.84;95534.22;5047044;28;20201;-65
2022/07/17 07:36:51;;;;;;;2.87;2.77;;;31.30;45.20;;;32.27;32.59;95535.13;5047553;28;20256;-65
2022/07/17 07:39:18;;;;;;;5.72;2.97;;;31.40;45.10;;;32.44;32.38;95530.38;5048210;28;20208;-65
2022/07/17 07:41:47;;;;;;;9.40;3.10;;;31.50;44.80;;;32.63;32.44;95535.41;5046456;28;20237;-65
2022/07/17 07:44:14;;;;;;;5.88;4.40;;;31.70;44.80;;;32.81;32.05;95545.03;5048760;28;20212;-59
2022/07/17 07:46:41;;;;;;;4.13;3.28;;;31.90;44.50;;;32.83;31.80;95540.97;5047660;28;20282;-59
2022/07/17 07:49:09;;;;;;;5.18;2.60;;;32.00;43.50;;;32.84;31.75;95542.63;5048626;28;20196;-59
2022/07/17 07:51:36;;;;;;;2.70;2.60;;;32.00;43.90;;;32.96;31.80;95536.13;5047396;28;20228;-58
2022/07/17 07:54:03;;;;;;;4.70;2.60;;;32.00;43.90;;;33.11;31.72;95536.22;5047762;28;20201;-57
2022/07/17 07:56:31;;;;;;;5.05;2.38;;;32.20;43.70;;;33.23;31.57;95542.28;5047424;28;20781;-65
2022/07/17 07:59:00;;;;;;;3.17;2.85;;;32.30;43.40;;;33.20;31.41;95537.38;5047884;28;20283;-64
2022/07/17 08:01:27;;;;;;;3.45;3.20;;;32.30;43.10;;;33.28;31.65;95541.47;5046833;28;20221;-59
2022/07/17 08:03:55;;;;;;;2.30;2.20;;;32.40;43.60;;;33.36;31.32;95545.59;5045747;28;20204;-59
2022/07/17 08:06:22;;;;;;;3.33;3.13;;;32.50;43.40;;;33.30;30.87;95542.03;5046964;28;20228;-65
2022/07/17 08:08:49;;;;;;;4.75;3.30;;;32.50;42.50;;;33.26;31.07;95548.28;5047022;28;20204;-59
2022/07/17 08:11:16;;;;;;;3.95;2.25;;;32.40;42.40;;;33.20;30.58;95547.44;5046329;28;20289;-58
2022/07/17 08:13:44;;;;;;;7.47;2.45;;;32.40;42.30;;;33.29;31.22;95553.19;5043516;28;20197;-65
2022/07/17 08:16:13;;;;;;;2.95;2.33;;;32.40;42.80;;;33.47;31.25;95549.97;5046001;28;20225;-64
2022/07/17 08:18:40;;;;;;;6.03;2.50;;;32.50;42.90;;;33.65;31.08;95542.38;5045347;28;20605;-64
2022/07/17 08:21:07;;;;;;;3.83;2.65;;;32.70;43.00;;;33.83;30.66;95541.91;5048630;28;20220;-66
2022/07/17 08:23:35;;;;;;;3.35;2.92;;;32.90;42.70;;;34.01;30.41;95546.00;5043820;28;20237;-65
2022/07/17 08:26:02;;;;;;;7.70;2.67;;;33.10;42.30;;;34.09;30.05;95550.94;5041361;28;20267;-58
2022/07/17 08:28:30;;;;;;;6.45;4.28;;;33.30;41.50;;;34.15;30.63;95546.28;5042678;28;20201;-63
2022/07/17 08:30:57;;;;;;;2.63;2.42;;;33.30;41.50;;;34.29;30.37;95543.88;5043723;28;20762;-63
2022/07/17 08:33:26;;;;;;;6.57;3.20;;;33.40;41.80;;;34.48;30.02;95542.19;5046011;28;20255;-60
2022/07/17 08:35:53;;;;;;;2.97;2.63;;;33.60;41.70;;;34.66;29.95;95535.34;5042975;28;20279;-58
2022/07/17 08:38:20;;;;;;;3.92;2.33;;;33.80;41.70;;;34.87;29.83;95540.78;5045978;28;20222;-64
2022/07/17 08:40:49;;;;;;;2.10;2.00;;;34.00;41.40;;;35.07;29.45;95545.34;5045826;28;20306;-59
2022/07/17 08:43:17;;;;;;;2.83;2.60;;;34.20;41.20;;;35.25;29.04;95538.44;5042129;28;20193;-58
2022/07/17 08:45:44;;;;;;;7.38;2.42;;;34.40;41.00;;;35.39;28.66;95546.09;5046356;28;20228;-60
2022/07/17 08:48:14;;;;;;;3.28;2.55;;;34.60;40.50;;;35.46;29.40;95543.84;5045905;28;20197;-65
2022/07/17 08:50:42;;;;;;;3.13;2.20;;;34.60;40.10;;;35.57;29.30;95536.41;5047626;28;20798;-64
2022/07/17 08:53:10;;;;;;;2.80;2.60;;;34.70;40.00;;;35.64;29.34;95542.38;5046668;28;20784;-64
2022/07/17 08:55:38;;;;;;;3.90;2.65;;;34.80;39.60;;;35.69;29.23;95534.94;5047079;28;20221;-67
2022/07/17 08:58:05;;;;;;;3.67;2.80;;;34.90;39.50;;;35.58;28.97;95525.16;5041861;28;20266;-59
2022/07/17 09:00:32;;;;;;;4.13;2.70;;;34.80;39.00;;;35.64;28.58;95532.25;5047911;28;20637;-58
2022/07/17 09:03:01;;;;;;;3.40;2.60;;;34.80;39.10;;;35.74;28.09;95531.34;5043529;28;20208;-58
2022/07/17 09:05:30;;;;;;;2.83;1.90;;;34.90;39.10;;;35.80;27.81;95521.22;5046336;28;20271;-58
2022/07/17 09:07:58;;;;;;;2.50;2.40;;;35.00;39.00;;;35.86;27.92;95523.63;5037716;28;20194;-57
2022/07/17 09:10:34;;;;;;;2.95;2.75;;;35.00;38.80;;;35.94;28.41;95521.41;5045260;28;20205;-61
2022/07/17 09:13:02;;;;;;;2.28;2.17;;;35.10;38.70;;;36.01;28.50;95524.66;5045533;28;20260;-66
2022/07/17 09:15:29;;;;;;;2.30;2.20;;;35.20;38.70;;;36.05;28.53;95521.06;5046292;28;20526;-59
2022/07/17 09:17:57;;;;;;;5.90;2.58;;;35.20;38.60;;;36.14;27.48;95523.16;5044354;28;20217;-58
2022/07/17 09:20:24;;;;;;;2.60;2.40;;;35.30;38.50;;;36.21;28.17;95524.47;5046293;28;20209;-63
2022/07/17 09:23:00;;;;;;;10.75;2.50;;;35.40;38.40;;;36.30;27.50;95515.66;5040444;28;20263;-59
2022/07/17 09:25:35;;;;;;;2.78;2.65;;;35.50;38.20;;;36.38;27.63;95521.34;5040425;28;20200;-59
2022/07/17 09:28:03;;;;;;;4.07;2.50;;;35.50;38.00;;;36.41;28.06;95518.03;5041532;28;20198;-66
2022/07/17 09:30:31;;;;;;;4.15;2.45;;;35.60;38.10;;;36.44;27.58;95522.13;5041762;28;20896;-58
2022/07/17 09:32:58;;;;;;;8.77;2.60;;;35.60;37.90;;;36.46;27.88;95519.91;5043742;28;20233;-62
2022/07/17 09:35:26;;;;;;;3.63;2.05;;;35.60;37.90;;;36.48;27.20;95522.34;5046109;28;20204;-63
2022/07/17 09:37:54;;;;;;;2.58;2.00;;;35.70;37.70;;;36.45;27.65;95521.00;5046241;28;20589;-57
2022/07/17 09:43:08;;;;;;;4.53;2.45;;;35.60;37.00;;;36.46;27.52;95521.81;5043489;28;20192;-58
2022/07/17 09:45:35;;;;;;;2.60;2.40;;;35.70;37.50;;;36.43;26.81;95518.53;5044857;28;20378;-57
2022/07/17 09:48:03;;;;;;;17.88;3.03;;;35.70;37.00;;;36.40;26.59;95519.13;5044742;28;20208;-65
2022/07/17 09:50:30;;;;;;;4.78;2.78;;;35.60;36.90;;;36.35;26.55;95524.66;5044740;28;20228;-73
2022/07/17 09:52:58;;;;;;;3.85;2.38;;;35.60;36.90;;;36.29;26.52;95512.09;5045061;28;20232;-64
2022/07/17 09:55:29;;;;;;;8.95;3.25;;;35.50;36.80;;;36.29;26.62;95527.72;5045754;28;20212;-64
2022/07/17 09:57:56;;;;;;;2.67;2.47;;;35.50;36.90;;;36.25;26.82;95517.34;5044517;28;20217;-64
2022/07/17 10:00:24;;;;;;;3.35;2.40;;;35.50;36.60;;;36.26;27.45;95518.16;5042907;28;20213;-57
2022/07/17 10:02:51;;;;;;;8.93;2.10;;;35.50;36.90;;;36.24;26.32;95520.34;5043803;28;20201;-64
2022/07/17 10:05:18;;;;;;;2.58;2.33;;;35.40;36.80;;;36.17;27.61;95517.91;5041530;28;20295;-58
2022/07/17 10:07:47;;;;;;;4.25;2.58;;;35.40;36.80;;;36.14;26.57;95523.97;5044338;28;20213;-63
2022/07/17 10:10:15;;;;;;;2.42;2.33;;;35.30;36.80;;;36.10;27.18;95513.88;5044797;28;20208;-62
2022/07/17 10:12:46;;;;;;;3.25;2.25;;;35.40;36.80;;;36.10;26.96;95522.09;5044205;28;20697;-58
2022/07/17 10:15:13;;;;;;;8.35;3.00;;;35.30;36.80;;;36.08;27.31;95519.63;5044720;28;20658;-63
2022/07/17 10:17:41;;;;;;;3.15;2.70;;;35.30;36.80;;;36.07;26.10;95515.28;5043600;28;20246;-59
2022/07/17 10:20:11;;;;;;;2.58;2.38;;;35.30;36.60;;;36.01;26.15;95508.22;5044218;28;20205;-59
2022/07/17 10:22:42;;;;;;;4.25;2.25;;;35.20;36.70;;;35.87;26.42;95505.31;5043950;28;20757;-57